createdAt,value
2022-11-12T08:38:37.448Z,16.00
2022-11-12T08:41:23.018Z,17.45
2022-11-12T08:44:08.834Z,19.00
2022-11-12T08:46:54.249Z,18.80
2022-11-12T08:49:42.586Z,18.95
2022-11-12T08:52:32.100Z,19.92
2022-11-12T08:55:17.702Z,18.45
2022-11-12T08:58:04.623Z,18.15
2022-11-12T09:00:50.936Z,19.40
2022-11-12T09:03:36.211Z,18.92
2022-11-12T09:06:21.928Z,18.67
2022-11-12T09:09:07.467Z,19.05
2022-11-12T09:11:52.901Z,20.15
2022-11-12T09:14:38.272Z,22.80
2022-11-12T09:17:23.850Z,22.23
2022-11-12T09:20:09.571Z,19.17
2022-11-12T09:22:59.543Z,19.98
2022-11-12T09:25:45.243Z,20.35
2022-11-12T09:28:30.838Z,20.50
2022-11-12T09:31:15.824Z,18.70
2022-11-12T09:34:01.186Z,20.95
2022-11-12T09:36:46.583Z,20.88
2022-11-12T09:39:31.925Z,20.23
2022-11-12T09:42:22.803Z,21.45
2022-11-12T09:45:19.079Z,22.08
2022-11-12T09:48:09.024Z,20.50
2022-11-12T09:51:13.433Z,21.20
2022-11-12T09:54:21.503Z,21.23
2022-11-12T09:57:11.986Z,21.42
2022-11-12T09:59:57.552Z,20.10
2022-11-12T10:03:00.934Z,23.83
2022-11-12T10:05:52.301Z,21.95
2022-11-12T10:08:55.596Z,21.17
2022-11-12T10:15:37.250Z,19.88
2022-11-12T10:18:50.175Z,21.40
2022-11-12T10:21:53.503Z,18.35
2022-11-12T10:27:41.644Z,19.55
2022-11-12T10:30:26.987Z,21.30
2022-11-12T10:33:15.116Z,19.20
2022-11-12T10:36:17.214Z,18.27
2022-11-12T10:39:02.823Z,22.05
2022-11-12T10:42:06.552Z,20.70
2022-11-12T10:44:54.405Z,19.25
2022-11-12T10:47:42.975Z,18.48
2022-11-12T10:50:42.709Z,20.45
2022-11-12T10:53:39.267Z,25.98
2022-11-12T10:56:29.453Z,19.55
2022-11-12T10:59:19.021Z,21.90
2022-11-12T11:02:17.121Z,21.98
2022-11-12T11:05:39.732Z,21.35
2022-11-12T11:08:46.807Z,19.15
2022-11-12T11:11:32.394Z,20.58
2022-11-12T11:14:23.885Z,20.73
2022-11-12T11:17:17.335Z,21.98
2022-11-12T11:20:04.838Z,22.17
2022-11-12T11:23:13.211Z,20.23
2022-11-12T11:26:07.676Z,20.45
2022-11-12T11:29:14.129Z,20.85
2022-11-12T11:32:24.500Z,21.60
2022-11-12T11:35:31.489Z,21.85
2022-11-12T11:38:39.634Z,20.83
2022-11-12T11:41:50.365Z,19.83
2022-11-12T11:44:47.402Z,22.35
2022-11-12T11:48:00.549Z,21.83
2022-11-12T11:50:57.982Z,22.35
2022-11-12T11:53:43.051Z,23.15
2022-11-12T11:56:42.276Z,23.25
2022-11-12T12:00:05.993Z,21.55
2022-11-12T12:05:41.818Z,23.23
2022-11-12T12:08:59.071Z,23.63
2022-11-12T12:12:16.147Z,23.27
2022-11-12T12:15:16.475Z,25.83
2022-11-12T12:18:26.046Z,24.55
2022-11-12T12:21:19.083Z,24.92
2022-11-12T12:24:16.731Z,24.35
2022-11-12T12:27:12.498Z,22.80
2022-11-12T12:30:09.370Z,25.00
2022-11-12T12:33:02.558Z,24.45
2022-11-12T12:36:02.182Z,23.10
2022-11-12T12:39:19.482Z,24.42
2022-11-12T12:42:09.177Z,23.05
2022-11-12T12:45:05.314Z,24.08
2022-11-12T12:47:54.496Z,23.10
2022-11-12T12:50:42.329Z,23.30
2022-11-12T12:53:27.778Z,22.40
2022-11-12T12:56:13.189Z,23.48
2022-11-12T12:59:03.611Z,25.10
2022-11-12T13:02:01.505Z,28.90
2022-11-12T13:04:52.533Z,29.67
2022-11-12T13:07:49.153Z,28.33
2022-11-12T13:10:45.779Z,28.85
2022-11-12T13:13:36.400Z,26.70
2022-11-12T13:17:05.440Z,27.42
2022-11-12T13:19:53.681Z,26.08
2022-11-12T13:22:39.199Z,25.33
2022-11-12T13:25:30.511Z,27.83
2022-11-12T13:28:16.036Z,27.65
2022-11-12T13:31:03.503Z,27.85
2022-11-12T13:33:49.524Z,27.50
2022-11-12T13:36:35.035Z,25.90
2022-11-12T13:39:22.141Z,27.98
2022-11-12T13:42:35.735Z,27.65
2022-11-12T13:45:25.027Z,29.05
2022-11-12T13:48:36.278Z,28.00
2022-11-12T13:51:34.337Z,26.08
2022-11-12T13:54:39.108Z,26.50
2022-11-12T13:57:28.277Z,28.83
2022-11-12T14:00:23.704Z,27.92
2022-11-12T14:03:14.995Z,27.02
2022-11-12T14:06:06.744Z,27.35
2022-11-12T14:09:06.096Z,26.25
2022-11-12T14:11:53.906Z,27.23
2022-11-12T14:14:52.513Z,26.60
2022-11-12T14:18:02.747Z,25.45
2022-11-12T14:20:49.208Z,26.00
2022-11-12T14:23:38.070Z,24.73
2022-11-12T14:26:38.860Z,24.58
2022-11-12T14:29:24.462Z,25.15
2022-11-12T14:32:09.894Z,27.95
2022-11-12T14:34:55.129Z,29.05
2022-11-12T14:37:50.013Z,28.90
2022-11-12T14:40:57.354Z,29.67
2022-11-12T14:44:11.152Z,28.67
2022-11-12T14:46:58.931Z,32.83
2022-11-12T14:49:47.863Z,27.33
2022-11-12T14:52:37.587Z,33.13
2022-11-12T14:55:26.586Z,29.35
2022-11-12T14:58:16.637Z,30.25
2022-11-12T15:04:45.114Z,32.25
2022-11-12T15:07:33.428Z,44.08
2022-11-12T15:10:36.378Z,56.90
2022-11-12T15:13:24.863Z,47.95
2022-11-12T15:16:16.347Z,45.22
2022-11-12T15:19:26.449Z,43.50
2022-11-12T15:22:20.940Z,39.95
2022-11-12T15:25:31.794Z,38.00
2022-11-12T15:28:23.584Z,37.33
2022-11-12T15:31:18.859Z,35.50
2022-11-12T15:34:25.754Z,34.75
2022-11-12T15:37:19.802Z,35.63
2022-11-12T15:40:15.886Z,34.53
2022-11-12T15:43:02.163Z,35.25
2022-11-12T15:45:52.536Z,36.65
2022-11-12T15:48:38.119Z,31.52
2022-11-12T15:51:23.590Z,29.23
2022-11-12T15:54:08.902Z,30.58
2022-11-12T15:56:55.213Z,30.08
2022-11-12T15:59:41.167Z,27.60
2022-11-12T16:02:26.648Z,31.60
2022-11-12T16:05:17.123Z,31.27
2022-11-12T16:08:02.712Z,28.55
2022-11-12T16:10:48.688Z,30.33
2022-11-12T16:13:34.497Z,31.13
2022-11-12T16:16:20.102Z,30.85
2022-11-12T16:19:14.544Z,31.00
2022-11-12T16:22:00.964Z,31.63
2022-11-12T16:24:46.077Z,32.28
2022-11-12T16:27:32.792Z,33.03
2022-11-12T16:30:24.765Z,30.98
2022-11-12T16:33:14.631Z,32.80
2022-11-12T16:35:59.672Z,32.22
2022-11-12T16:38:46.580Z,34.28
2022-11-12T16:41:31.714Z,32.42
2022-11-12T16:44:17.161Z,34.95
2022-11-12T16:47:04.269Z,33.60
2022-11-12T16:49:49.610Z,31.88
2022-11-12T16:52:34.974Z,33.15
2022-11-12T16:55:21.385Z,34.03
2022-11-12T16:58:06.726Z,33.53
2022-11-12T17:00:52.590Z,32.13
2022-11-12T17:03:37.912Z,32.47
2022-11-12T17:06:32.164Z,31.30
2022-11-12T17:09:17.454Z,33.75
2022-11-12T17:12:02.601Z,32.28
2022-11-12T17:14:48.082Z,32.05
2022-11-12T17:17:33.237Z,33.58
2022-11-12T17:20:18.680Z,34.92
2022-11-12T17:23:04.030Z,32.35
2022-11-12T17:25:59.128Z,33.20
2022-11-12T17:28:45.036Z,33.05
2022-11-12T17:31:30.446Z,32.67
2022-11-12T17:34:18.660Z,32.08
2022-11-12T17:37:03.803Z,31.73
2022-11-12T17:39:49.286Z,33.78
2022-11-12T17:42:34.943Z,32.88
2022-11-12T17:45:20.411Z,33.67
2022-11-12T17:48:05.990Z,37.63
2022-11-12T17:50:53.498Z,39.17
2022-11-12T17:53:39.277Z,39.30
2022-11-12T17:56:24.682Z,37.83
2022-11-12T17:59:09.873Z,38.50
2022-11-12T18:01:55.285Z,38.58
2022-11-12T18:04:40.857Z,39.58
2022-11-12T18:07:26.569Z,39.78
2022-11-12T18:10:15.620Z,38.85
2022-11-12T18:13:03.900Z,38.47
2022-11-12T18:15:49.446Z,36.97
2022-11-12T18:18:34.840Z,36.63
2022-11-12T18:21:22.971Z,37.67
2022-11-12T18:24:14.378Z,38.72
2022-11-12T18:26:59.867Z,37.10
2022-11-12T18:29:46.509Z,38.47
2022-11-12T18:32:32.423Z,40.15
2022-11-12T18:35:17.524Z,43.10
2022-11-12T18:38:03.026Z,39.55
2022-11-12T18:40:48.365Z,40.85
2022-11-12T18:43:35.462Z,43.13
2022-11-12T18:46:21.326Z,44.55
2022-11-12T18:49:06.917Z,42.42
2022-11-12T18:51:52.452Z,37.75
2022-11-12T18:54:40.224Z,40.08
2022-11-12T18:57:25.585Z,42.78
2022-11-12T19:00:12.074Z,40.78
2022-11-12T19:02:57.584Z,36.85
2022-11-12T19:05:43.331Z,35.42
2022-11-12T19:08:29.055Z,37.92
2022-11-12T19:11:16.872Z,38.10
2022-11-12T19:14:02.050Z,39.17
2022-11-12T19:16:47.498Z,36.25
2022-11-12T19:19:32.915Z,33.65
2022-11-12T19:22:18.439Z,38.50
2022-11-12T19:25:03.952Z,39.03
2022-11-12T19:27:49.058Z,41.65
2022-11-12T19:30:34.452Z,39.72
2022-11-12T19:33:19.940Z,46.63
2022-11-12T19:36:06.994Z,47.67
2022-11-12T19:39:00.129Z,50.10
2022-11-12T19:41:45.769Z,56.63
2022-11-12T19:44:31.081Z,51.78
2022-11-12T19:47:16.546Z,47.35
2022-11-12T19:50:02.176Z,47.92
2022-11-12T19:52:47.403Z,50.70
2022-11-12T19:55:38.641Z,55.22
2022-11-12T19:58:25.711Z,51.38
2022-11-12T20:01:14.338Z,54.97
2022-11-12T20:04:00.006Z,50.97
2022-11-12T20:06:45.556Z,44.28
2022-11-12T20:09:31.947Z,43.78
2022-11-12T20:12:17.240Z,45.92
2022-11-12T20:15:02.818Z,49.75
2022-11-12T20:17:48.191Z,57.33
2022-11-12T20:20:33.761Z,44.63
2022-11-12T20:23:19.260Z,40.53
2022-11-12T20:26:07.341Z,41.50
2022-11-12T20:28:53.511Z,42.00
2022-11-12T20:31:41.951Z,49.50
2022-11-12T20:34:27.399Z,42.75
2022-11-12T20:37:13.055Z,43.22
2022-11-12T20:39:58.881Z,41.00
2022-11-12T20:42:45.843Z,35.70
2022-11-12T20:45:31.032Z,34.40
2022-11-12T20:48:16.502Z,31.67
2022-11-12T20:51:22.647Z,33.60
2022-11-12T20:54:10.128Z,33.30
2022-11-12T20:56:56.114Z,36.70
2022-11-12T20:59:41.538Z,36.58
2022-11-12T21:02:26.991Z,38.38
2022-11-12T21:05:15.049Z,37.85
2022-11-12T21:08:00.332Z,36.95
2022-11-12T21:10:49.710Z,35.08
2022-11-12T21:13:36.401Z,33.15
2022-11-12T21:16:21.938Z,33.78
2022-11-12T21:19:07.503Z,33.13
2022-11-12T21:21:53.348Z,32.53
2022-11-12T21:24:39.087Z,34.40
2022-11-12T21:27:26.644Z,32.40
2022-11-12T21:30:15.156Z,32.55
2022-11-12T21:33:00.672Z,30.95
2022-11-12T21:35:53.368Z,28.38
2022-11-12T21:38:41.774Z,27.42
2022-11-12T21:41:28.639Z,26.65
2022-11-12T21:44:13.730Z,27.48
2022-11-12T21:46:59.182Z,28.58
2022-11-12T21:49:44.659Z,29.80
2022-11-12T21:52:30.306Z,31.60
2022-11-12T21:55:15.337Z,33.85
2022-11-12T21:58:01.249Z,24.77
2022-11-12T22:00:46.634Z,26.58
2022-11-12T22:03:32.018Z,28.52
2022-11-12T22:06:19.233Z,30.13
2022-11-12T22:09:05.426Z,28.58
2022-11-12T22:11:50.791Z,29.15
2022-11-12T22:14:36.270Z,28.35
2022-11-12T22:17:21.664Z,30.83
2022-11-12T22:20:07.869Z,31.75
2022-11-12T22:22:53.712Z,31.35
2022-11-12T22:25:41.270Z,30.70
2022-11-12T22:28:27.199Z,32.00
2022-11-12T22:31:15.258Z,30.35
2022-11-12T22:34:02.364Z,30.13
2022-11-12T22:36:47.656Z,27.27
2022-11-12T22:39:33.076Z,27.67
2022-11-12T22:42:18.593Z,26.75
2022-11-12T22:45:04.231Z,25.48
2022-11-12T22:47:49.520Z,30.05
2022-11-12T22:50:35.069Z,29.88
2022-11-12T22:53:20.563Z,31.92
